Terminal Aerodrome Forecast
Issued by NWS Wilmington, OH

Current Version | Previous Version | Graphics & Text | Print | Product List | Glossary On
Versions: 1 2 3 4 5 6 7 8 9 10 11 12 13 14 15 16 17 18 19 20 21 22 23 24 25 26 27
355
FTUS41 KILN 282105 AAD
TAFILN
TAF AMD
KILN 282105Z 2821/2918 33007KT P6SM VCTS BKN035CB
      TEMPO 2821/2823 VRB21G35KT 3SM TSRA BR OVC022CB
     FM282300 31007KT P6SM BKN040
     FM290400 34004KT 4SM BR OVC007
     FM290800 32003KT 1SM BR OVC003
     FM291300 32006KT 3SM BR BKN008
     FM291500 29007KT P6SM BKN015
     FM291700 28008KT P6SM BKN025=

USA.gov is the U.S. government's official web portal to all federal, state and local government web resources and services.